createdAt,value
2023-05-19T00:01:50.731Z,56.32
2023-05-19T00:04:18.118Z,56.26
2023-05-19T00:06:46.776Z,56.52
2023-05-19T00:09:13.936Z,56.62
2023-05-19T00:11:41.268Z,56.71
2023-05-19T00:14:09.786Z,56.85
2023-05-19T00:16:39.296Z,57.00
2023-05-19T00:19:06.816Z,57.14
2023-05-19T00:21:33.962Z,57.28
2023-05-19T00:24:01.458Z,57.27
2023-05-19T00:26:28.509Z,57.21
2023-05-19T00:28:59.457Z,57.23
2023-05-19T00:31:26.485Z,57.33
2023-05-19T00:33:53.522Z,57.37
2023-05-19T00:36:20.572Z,57.42
2023-05-19T00:38:47.667Z,57.45
2023-05-19T00:41:14.652Z,57.58
2023-05-19T00:43:41.626Z,57.69
2023-05-19T00:46:08.818Z,57.62
2023-05-19T00:48:36.126Z,57.84
2023-05-19T00:51:04.814Z,57.89
2023-05-19T00:53:35.285Z,57.89
2023-05-19T00:56:02.506Z,57.92
2023-05-19T00:58:30.705Z,57.87
2023-05-19T01:01:03.874Z,58.01
2023-05-19T01:03:32.093Z,57.68
2023-05-19T01:06:01.854Z,57.57
2023-05-19T01:08:31.958Z,57.41
2023-05-19T01:10:59.881Z,57.26
2023-05-19T01:13:27.856Z,57.19
2023-05-19T01:16:07.521Z,57.24
2023-05-19T01:18:42.099Z,57.12
2023-05-19T01:21:24.491Z,56.81
2023-05-19T01:24:24.683Z,56.75
2023-05-19T01:26:57.893Z,56.65
2023-05-19T01:29:29.377Z,56.66
2023-05-19T01:31:56.572Z,56.69
2023-05-19T01:34:23.652Z,56.65
2023-05-19T01:36:50.749Z,56.71
2023-05-19T01:39:18.186Z,57.00
2023-05-19T01:41:45.136Z,57.32
2023-05-19T01:44:12.094Z,57.45
2023-05-19T01:46:39.153Z,57.40
2023-05-19T01:49:06.457Z,57.50
2023-05-19T01:51:33.505Z,57.33
2023-05-19T01:54:00.680Z,57.20
2023-05-19T01:56:39.451Z,57.39
2023-05-19T01:59:14.253Z,57.39
2023-05-19T02:01:44.310Z,57.36
2023-05-19T02:04:31.422Z,57.37
2023-05-19T02:07:02.242Z,57.46
2023-05-19T02:09:42.441Z,57.44
2023-05-19T02:12:28.933Z,57.38
2023-05-19T02:15:21.608Z,57.58
2023-05-19T02:17:51.975Z,57.68
2023-05-19T02:20:19.545Z,57.86
2023-05-19T02:22:46.856Z,58.04
2023-05-19T02:25:14.102Z,57.94
2023-05-19T02:27:41.600Z,57.82
2023-05-19T02:30:09.820Z,57.95
2023-05-19T02:32:37.288Z,58.33
2023-05-19T02:35:04.993Z,58.66
2023-05-19T02:37:32.712Z,58.71
2023-05-19T02:39:59.675Z,59.24
2023-05-19T02:42:26.759Z,59.37
2023-05-19T02:44:54.773Z,59.52
2023-05-19T02:47:21.763Z,59.57
2023-05-19T02:49:48.822Z,59.58
2023-05-19T02:52:15.872Z,59.66
2023-05-19T02:54:43.397Z,59.42
2023-05-19T02:57:11.294Z,59.47
2023-05-19T02:59:38.348Z,59.31
2023-05-19T03:02:05.465Z,59.52
2023-05-19T03:04:32.597Z,59.28
2023-05-19T03:06:59.487Z,59.66
2023-05-19T03:09:26.673Z,59.82
2023-05-19T03:11:53.676Z,59.80
2023-05-19T03:14:24.322Z,60.18
2023-05-19T03:16:51.738Z,60.40
2023-05-19T03:19:18.977Z,60.20
2023-05-19T03:21:46.538Z,59.96
2023-05-19T03:24:13.843Z,59.72
2023-05-19T03:26:41.170Z,59.79
2023-05-19T03:29:11.624Z,59.60
2023-05-19T03:31:39.884Z,59.45
2023-05-19T03:34:06.911Z,59.43
2023-05-19T03:36:39.846Z,59.51
2023-05-19T03:39:11.323Z,59.73
2023-05-19T03:41:38.413Z,59.75
2023-05-19T03:44:05.570Z,59.89
2023-05-19T03:46:32.609Z,59.68
2023-05-19T03:49:08.697Z,59.27
2023-05-19T03:51:56.025Z,58.80
2023-05-19T03:54:36.668Z,58.44
2023-05-19T03:57:04.217Z,57.86
2023-05-19T03:59:31.723Z,57.44
2023-05-19T04:01:58.849Z,56.79
2023-05-19T04:04:26.993Z,56.26
2023-05-19T04:06:54.073Z,55.65
2023-05-19T04:09:21.838Z,55.37
2023-05-19T04:11:48.874Z,54.59
2023-05-19T04:14:16.164Z,54.33
2023-05-19T04:16:45.121Z,53.81
2023-05-19T04:19:12.084Z,53.74
2023-05-19T04:21:39.202Z,53.44
2023-05-19T04:24:06.800Z,52.75
2023-05-19T04:26:34.828Z,52.32
2023-05-19T04:29:05.119Z,52.19
2023-05-19T04:31:49.213Z,52.04
2023-05-19T04:34:20.168Z,52.09
2023-05-19T04:36:48.596Z,51.95
2023-05-19T04:39:17.182Z,51.87
2023-05-19T04:41:45.641Z,51.81
2023-05-19T04:44:13.862Z,51.81
2023-05-19T04:46:42.988Z,52.06
2023-05-19T04:49:12.643Z,52.09
2023-05-19T04:51:41.673Z,52.18
2023-05-19T04:54:10.318Z,52.41
2023-05-19T04:56:37.445Z,52.59
2023-05-19T04:59:04.897Z,52.73
2023-05-19T05:01:33.165Z,52.71
2023-05-19T05:04:02.694Z,52.37
2023-05-19T05:06:31.840Z,51.97
2023-05-19T05:09:00.174Z,51.47
2023-05-19T05:11:27.606Z,51.01
2023-05-19T05:13:58.461Z,50.82
2023-05-19T05:16:27.352Z,50.77
2023-05-19T05:18:55.112Z,50.44
2023-05-19T05:21:23.281Z,49.91
2023-05-19T05:23:52.206Z,49.53
2023-05-19T05:26:20.417Z,49.26
2023-05-19T05:28:49.181Z,49.04
2023-05-19T05:31:17.151Z,48.62
2023-05-19T05:33:44.699Z,47.70
2023-05-19T05:36:13.815Z,47.20
2023-05-19T05:38:40.879Z,46.78
2023-05-19T05:41:08.248Z,46.33
2023-05-19T05:43:37.194Z,45.82
2023-05-19T05:46:04.559Z,45.52
2023-05-19T05:48:31.824Z,45.31
2023-05-19T05:50:59.217Z,44.92
2023-05-19T05:53:30.899Z,44.85
2023-05-19T05:55:58.667Z,44.79
2023-05-19T05:58:29.071Z,44.56
2023-05-19T06:00:58.210Z,44.29
2023-05-19T06:03:25.703Z,44.04
2023-05-19T06:05:53.804Z,43.69
2023-05-19T06:08:21.149Z,43.30
2023-05-19T06:10:48.175Z,43.22
2023-05-19T06:13:19.231Z,42.78
2023-05-19T06:15:46.648Z,42.40
2023-05-19T06:18:22.631Z,42.29
2023-05-19T06:20:52.983Z,42.44
2023-05-19T06:23:20.069Z,42.22
2023-05-19T06:25:47.276Z,42.18
2023-05-19T06:28:14.981Z,41.51
2023-05-19T06:30:42.891Z,41.40
2023-05-19T06:33:34.158Z,41.78
2023-05-19T06:36:01.960Z,41.80
2023-05-19T06:38:29.647Z,41.70
2023-05-19T06:40:59.436Z,41.37
2023-05-19T06:43:26.973Z,40.88
2023-05-19T06:45:56.025Z,40.94
2023-05-19T06:48:24.970Z,40.62
2023-05-19T06:50:57.559Z,40.44
2023-05-19T06:53:27.425Z,40.22
2023-05-19T06:55:59.855Z,40.08
2023-05-19T06:58:33.784Z,40.37
2023-05-19T07:01:02.996Z,40.68
2023-05-19T07:03:34.649Z,40.53
2023-05-19T07:06:01.840Z,40.64
2023-05-19T07:08:29.271Z,40.46
2023-05-19T07:10:59.290Z,40.19
2023-05-19T07:13:29.118Z,39.89
2023-05-19T07:15:56.568Z,39.94
2023-05-19T07:18:25.733Z,40.02
2023-05-19T07:20:56.054Z,39.93
2023-05-19T07:23:23.136Z,39.60
2023-05-19T07:25:56.917Z,39.18
2023-05-19T07:28:24.973Z,39.18
2023-05-19T07:30:53.441Z,39.29
2023-05-19T07:33:20.905Z,39.46
2023-05-19T07:35:48.746Z,39.34
2023-05-19T07:38:15.714Z,39.74
2023-05-19T07:40:42.694Z,39.79
2023-05-19T07:43:14.484Z,40.00
2023-05-19T07:45:41.765Z,39.88
2023-05-19T07:48:09.156Z,39.99
2023-05-19T07:50:37.360Z,39.87
2023-05-19T07:53:04.419Z,39.19
2023-05-19T07:55:33.348Z,39.04
2023-05-19T07:58:03.507Z,38.99
2023-05-19T08:00:30.796Z,39.29
2023-05-19T08:02:58.355Z,39.35
2023-05-19T08:05:28.388Z,38.88
2023-05-19T08:07:56.717Z,38.51
2023-05-19T08:10:23.843Z,39.02
2023-05-19T08:12:51.005Z,39.21
2023-05-19T08:15:19.124Z,39.57
2023-05-19T08:17:46.455Z,39.63
2023-05-19T08:20:14.135Z,41.45
2023-05-19T08:22:43.865Z,42.60
2023-05-19T08:25:12.314Z,43.12
2023-05-19T08:27:39.440Z,43.43
2023-05-19T08:30:09.829Z,43.46
2023-05-19T08:32:37.596Z,41.71
2023-05-19T08:35:05.059Z,38.51
2023-05-19T08:37:33.979Z,36.57
2023-05-19T08:40:01.446Z,35.94
2023-05-19T08:42:31.275Z,36.19
2023-05-19T08:44:58.917Z,36.12
2023-05-19T08:47:25.962Z,35.95
2023-05-19T08:49:53.566Z,36.15
2023-05-19T08:52:35.928Z,36.53
2023-05-19T08:55:34.281Z,36.37
2023-05-19T08:58:05.243Z,34.98
2023-05-19T09:00:32.666Z,35.10
2023-05-19T09:03:17.383Z,34.80
2023-05-19T09:05:46.779Z,33.32
2023-05-19T09:08:14.155Z,32.14
2023-05-19T09:10:43.316Z,32.00
2023-05-19T09:13:10.658Z,32.13
2023-05-19T09:15:38.901Z,31.41
2023-05-19T09:18:13.465Z,30.88
2023-05-19T09:20:41.750Z,30.75
2023-05-19T09:23:13.907Z,31.00
2023-05-19T09:25:51.111Z,30.95
2023-05-19T09:28:30.914Z,30.74
2023-05-19T09:31:10.645Z,30.42
2023-05-19T09:33:39.219Z,30.03
2023-05-19T09:36:09.999Z,29.86
2023-05-19T09:38:42.139Z,30.53
2023-05-19T09:41:09.827Z,30.40
2023-05-19T09:43:37.027Z,29.70
2023-05-19T09:46:05.833Z,29.47
2023-05-19T09:48:34.817Z,28.74
2023-05-19T09:51:02.822Z,28.30
2023-05-19T09:53:30.479Z,28.52
2023-05-19T09:55:58.173Z,28.19
2023-05-19T09:58:31.607Z,27.81
2023-05-19T10:00:58.667Z,27.88
2023-05-19T10:03:26.217Z,27.85
2023-05-19T10:05:53.916Z,27.70
2023-05-19T10:08:21.658Z,27.35
2023-05-19T10:10:48.796Z,27.43
2023-05-19T10:13:16.590Z,27.62
2023-05-19T10:15:54.277Z,27.50
2023-05-19T10:18:26.579Z,25.65
2023-05-19T10:20:59.658Z,25.18
2023-05-19T10:23:26.698Z,25.34
2023-05-19T10:25:56.535Z,25.32
2023-05-19T10:28:25.784Z,25.36
2023-05-19T10:30:54.782Z,25.42
2023-05-19T10:33:22.469Z,25.65
2023-05-19T10:36:21.385Z,26.08
2023-05-19T10:38:54.015Z,26.45
2023-05-19T10:41:30.523Z,26.76
2023-05-19T10:44:12.865Z,25.86
2023-05-19T10:46:43.393Z,25.53
2023-05-19T10:49:10.677Z,25.68
2023-05-19T10:51:37.697Z,25.56
2023-05-19T10:54:15.590Z,24.75
2023-05-19T10:56:48.004Z,24.45
2023-05-19T10:59:31.628Z,24.37
2023-05-19T11:02:04.070Z,24.01
2023-05-19T11:04:50.134Z,23.60
2023-05-19T11:07:19.577Z,23.66
2023-05-19T11:09:53.119Z,24.21
2023-05-19T11:12:25.089Z,26.06
2023-05-19T11:14:55.402Z,27.68
2023-05-19T11:17:25.112Z,29.41
2023-05-19T11:19:59.511Z,29.81
2023-05-19T11:22:30.310Z,29.82
2023-05-19T11:24:57.734Z,30.93
2023-05-19T11:27:29.231Z,30.78
2023-05-19T11:29:57.751Z,31.52
2023-05-19T11:32:30.108Z,31.38
2023-05-19T11:34:57.791Z,30.72
2023-05-19T11:37:25.303Z,31.12
2023-05-19T11:39:53.068Z,31.50
2023-05-19T11:42:20.817Z,31.67
2023-05-19T11:44:48.213Z,31.87
2023-05-19T11:47:16.450Z,32.24
2023-05-19T11:49:52.182Z,32.35
2023-05-19T11:52:22.446Z,32.06
2023-05-19T11:54:49.886Z,31.78
2023-05-19T11:57:22.736Z,31.68
2023-05-19T11:59:52.420Z,31.28
2023-05-19T12:02:23.375Z,30.63
2023-05-19T12:04:53.965Z,30.47
2023-05-19T12:07:23.571Z,30.26
2023-05-19T12:09:51.933Z,30.84
2023-05-19T12:12:22.703Z,31.57
2023-05-19T12:14:55.867Z,32.39
2023-05-19T12:17:26.231Z,32.77
2023-05-19T12:19:53.727Z,33.25
2023-05-19T12:22:20.949Z,33.29
2023-05-19T12:24:51.989Z,33.80
2023-05-19T12:27:24.134Z,33.68
2023-05-19T12:29:54.050Z,33.53
2023-05-19T12:32:29.017Z,36.17
2023-05-19T12:35:00.718Z,38.22
2023-05-19T12:37:28.073Z,39.22
2023-05-19T12:39:58.980Z,40.99
2023-05-19T12:42:31.699Z,42.58
2023-05-19T12:45:00.886Z,43.87
2023-05-19T12:47:36.803Z,43.17
2023-05-19T12:50:08.868Z,42.64
2023-05-19T12:52:47.411Z,41.00
2023-05-19T12:55:16.634Z,40.38
2023-05-19T12:57:44.991Z,42.75
2023-05-19T13:00:15.587Z,43.96
2023-05-19T13:02:57.043Z,44.47
2023-05-19T13:05:24.804Z,45.02
2023-05-19T13:07:56.838Z,45.35
2023-05-19T13:10:30.061Z,45.93
2023-05-19T13:12:58.167Z,46.26
2023-05-19T13:15:26.585Z,44.80
2023-05-19T13:17:54.264Z,42.95
2023-05-19T13:20:21.971Z,40.75
2023-05-19T13:22:49.190Z,39.34
2023-05-19T13:25:16.669Z,39.13
2023-05-19T13:27:46.030Z,39.63
2023-05-19T13:30:13.455Z,38.85
2023-05-19T13:32:42.095Z,37.28
2023-05-19T13:35:10.209Z,35.70
2023-05-19T13:37:37.655Z,34.91
2023-05-19T13:40:05.186Z,34.50
2023-05-19T13:42:33.945Z,34.83
2023-05-19T13:45:25.705Z,35.64
2023-05-19T13:47:57.277Z,35.84
2023-05-19T13:50:24.495Z,36.14
2023-05-19T13:52:52.226Z,36.21
2023-05-19T13:55:19.681Z,36.19
2023-05-19T13:57:49.370Z,35.70
2023-05-19T14:00:18.483Z,34.99
2023-05-19T14:02:45.926Z,34.17
2023-05-19T14:05:13.258Z,33.84
2023-05-19T14:07:40.364Z,34.15
2023-05-19T14:10:07.969Z,34.23
2023-05-19T14:12:49.487Z,34.47
2023-05-19T14:15:22.832Z,34.95
2023-05-19T14:17:49.814Z,33.89
2023-05-19T14:20:16.853Z,32.68
2023-05-19T14:22:43.949Z,32.31
2023-05-19T14:25:11.179Z,32.24
2023-05-19T14:27:40.265Z,32.59
2023-05-19T14:30:08.529Z,33.31
2023-05-19T14:35:13.889Z,32.43
2023-05-19T14:37:41.007Z,32.74
2023-05-19T14:40:08.565Z,32.49
2023-05-19T14:42:35.746Z,31.93
2023-05-19T14:45:02.803Z,32.16
2023-05-19T14:47:29.945Z,32.07
2023-05-19T14:49:57.200Z,31.75
2023-05-19T14:52:24.541Z,31.36
2023-05-19T14:54:51.594Z,31.14
2023-05-19T14:57:18.564Z,31.35
2023-05-19T14:59:45.618Z,31.97
2023-05-19T15:02:12.763Z,33.66
2023-05-19T15:04:39.765Z,36.17
2023-05-19T15:07:10.119Z,38.31
2023-05-19T15:09:38.243Z,38.78
2023-05-19T15:12:05.338Z,38.46
2023-05-19T15:14:32.362Z,38.52
2023-05-19T15:16:59.426Z,38.90
2023-05-19T15:19:26.804Z,40.16
2023-05-19T15:21:54.218Z,41.17
2023-05-19T15:24:21.379Z,42.25
2023-05-19T15:26:48.410Z,43.69
2023-05-19T15:29:15.543Z,44.74
2023-05-19T15:31:42.588Z,45.51
2023-05-19T15:34:09.662Z,46.37
2023-05-19T15:36:36.637Z,47.32
2023-05-19T15:39:03.968Z,48.18
2023-05-19T15:41:30.984Z,48.69
2023-05-19T15:44:00.572Z,48.65
2023-05-19T15:46:28.517Z,48.67
2023-05-19T15:48:55.691Z,48.39
2023-05-19T15:51:22.797Z,48.11
2023-05-19T15:53:49.729Z,48.72
2023-05-19T15:56:16.899Z,48.60
2023-05-19T15:58:43.933Z,46.63
2023-05-19T16:01:11.064Z,44.92
2023-05-19T16:03:38.272Z,44.18
2023-05-19T16:06:05.603Z,44.69
2023-05-19T16:08:32.652Z,46.11
2023-05-19T16:10:59.613Z,47.64
2023-05-19T16:13:26.697Z,48.92
2023-05-19T16:15:53.896Z,51.39
2023-05-19T16:18:21.021Z,53.44
2023-05-19T16:20:48.073Z,55.27
2023-05-19T16:23:15.072Z,56.70
2023-05-19T16:25:41.998Z,57.66
2023-05-19T16:28:09.202Z,58.55
2023-05-19T16:30:36.501Z,58.88
2023-05-19T16:33:03.791Z,58.97
2023-05-19T16:35:31.109Z,58.98
2023-05-19T16:37:58.250Z,58.41
2023-05-19T16:40:25.380Z,59.03
2023-05-19T16:42:55.595Z,59.51
2023-05-19T16:45:22.627Z,60.02
2023-05-19T16:47:49.648Z,60.09
2023-05-19T16:50:16.675Z,60.34
2023-05-19T16:52:43.950Z,60.76
2023-05-19T16:55:11.233Z,61.02
2023-05-19T16:57:38.244Z,61.32
2023-05-19T17:00:05.621Z,61.01
2023-05-19T17:02:32.721Z,59.99
2023-05-19T17:05:00.080Z,59.17
2023-05-19T17:07:29.257Z,59.56
2023-05-19T17:09:56.263Z,59.99
2023-05-19T17:12:23.342Z,60.55
2023-05-19T17:14:52.191Z,61.30
2023-05-19T17:17:20.246Z,61.39
2023-05-19T17:19:47.899Z,60.39
2023-05-19T17:22:14.871Z,59.22
2023-05-19T17:24:41.879Z,58.29
2023-05-19T17:27:08.890Z,57.74
2023-05-19T17:29:36.883Z,57.81
2023-05-19T17:32:04.523Z,58.77
2023-05-19T17:34:31.565Z,60.31
2023-05-19T17:36:58.710Z,60.93
2023-05-19T17:39:25.754Z,61.36
2023-05-19T17:41:52.826Z,61.70
2023-05-19T17:44:19.837Z,62.06
2023-05-19T17:46:47.105Z,62.34
2023-05-19T17:49:15.597Z,62.78
2023-05-19T17:51:42.827Z,63.31
2023-05-19T17:54:09.886Z,63.90
2023-05-19T17:56:40.313Z,64.15
2023-05-19T17:59:07.425Z,64.06
2023-05-19T18:01:34.725Z,64.04
2023-05-19T18:04:02.606Z,63.53
2023-05-19T18:06:29.893Z,63.27
2023-05-19T18:08:57.627Z,62.59
2023-05-19T18:11:24.864Z,61.92
2023-05-19T18:13:51.863Z,61.56
2023-05-19T18:16:18.963Z,61.21
2023-05-19T18:18:50.659Z,61.27
2023-05-19T18:21:18.263Z,61.28
2023-05-19T18:23:45.898Z,60.89
2023-05-19T18:26:16.011Z,60.46
2023-05-19T18:28:43.512Z,60.04
2023-05-19T18:31:15.878Z,59.72
2023-05-19T18:33:43.416Z,59.65
2023-05-19T18:36:10.634Z,59.74
2023-05-19T18:38:37.560Z,59.60
2023-05-19T18:41:06.821Z,59.30
2023-05-19T18:43:34.493Z,59.29
2023-05-19T18:46:01.553Z,59.47
2023-05-19T18:48:29.214Z,59.62
2023-05-19T18:50:57.407Z,59.34
2023-05-19T18:53:24.522Z,59.17
2023-05-19T18:55:51.496Z,58.99
2023-05-19T18:58:18.704Z,59.13
2023-05-19T19:00:45.906Z,59.21
2023-05-19T19:03:13.024Z,59.22
2023-05-19T19:05:40.047Z,59.19
2023-05-19T19:08:07.059Z,59.26
2023-05-19T19:10:39.104Z,59.35
2023-05-19T19:13:06.499Z,59.65
2023-05-19T19:15:33.572Z,59.86
2023-05-19T19:18:00.756Z,59.81
2023-05-19T19:20:27.839Z,59.49
2023-05-19T19:22:55.134Z,59.30
2023-05-19T19:25:23.525Z,58.79
2023-05-19T19:27:50.960Z,58.17
2023-05-19T19:30:18.014Z,57.83
2023-05-19T19:32:45.180Z,57.79
2023-05-19T19:35:12.384Z,57.46
2023-05-19T19:37:39.336Z,57.55
2023-05-19T19:40:06.971Z,58.35
2023-05-19T19:42:34.436Z,59.05
2023-05-19T19:45:01.493Z,59.58
2023-05-19T19:47:28.612Z,60.51
2023-05-19T19:49:56.235Z,60.05
2023-05-19T19:52:23.130Z,59.22
2023-05-19T19:54:50.186Z,58.86
2023-05-19T19:57:17.531Z,58.22
2023-05-19T19:59:44.510Z,57.79
2023-05-19T20:02:11.717Z,57.51
2023-05-19T20:04:39.022Z,57.29
2023-05-19T20:07:05.949Z,56.90
2023-05-19T20:09:32.981Z,56.42
2023-05-19T20:11:59.985Z,55.91
2023-05-19T20:14:27.110Z,55.55
2023-05-19T20:16:54.491Z,55.52
2023-05-19T20:19:28.002Z,55.72
2023-05-19T20:21:55.098Z,55.91
2023-05-19T20:24:22.076Z,56.26
2023-05-19T20:26:48.975Z,56.45
2023-05-19T20:29:16.094Z,56.77
2023-05-19T20:31:43.073Z,56.84
2023-05-19T20:34:10.102Z,56.64
2023-05-19T20:36:37.105Z,56.47
2023-05-19T20:39:04.267Z,56.45
2023-05-19T20:41:31.626Z,56.48
2023-05-19T20:43:58.718Z,56.52
2023-05-19T20:46:25.707Z,56.40
2023-05-19T20:48:52.828Z,56.64
2023-05-19T20:51:19.766Z,56.75
2023-05-19T20:53:46.721Z,56.59
2023-05-19T20:56:14.099Z,56.60
2023-05-19T20:58:41.283Z,56.74
2023-05-19T21:01:08.273Z,57.02
2023-05-19T21:03:35.466Z,57.07
2023-05-19T21:06:02.611Z,57.32
2023-05-19T21:08:30.098Z,57.63
2023-05-19T21:10:57.046Z,58.02
2023-05-19T21:13:24.002Z,57.80
2023-05-19T21:15:51.219Z,57.76
2023-05-19T21:18:18.171Z,57.51
2023-05-19T21:20:45.125Z,57.82
2023-05-19T21:23:12.444Z,58.19
2023-05-19T21:25:39.868Z,57.97
2023-05-19T21:28:06.810Z,57.94
2023-05-19T21:30:33.999Z,58.06
2023-05-19T21:33:01.313Z,58.02
2023-05-19T21:35:28.291Z,57.91
2023-05-19T21:37:55.955Z,58.03
2023-05-19T21:40:22.933Z,58.27
2023-05-19T21:42:49.976Z,58.28
2023-05-19T21:45:17.315Z,58.41
2023-05-19T21:47:44.432Z,58.80
2023-05-19T21:50:11.555Z,59.21
2023-05-19T21:52:38.738Z,59.68
2023-05-19T21:55:06.466Z,59.86
2023-05-19T21:57:33.479Z,60.00
2023-05-19T22:00:00.712Z,60.17
2023-05-19T22:02:27.856Z,60.37
2023-05-19T22:04:55.019Z,60.90
2023-05-19T22:07:27.084Z,61.24
2023-05-19T22:09:54.098Z,61.50
2023-05-19T22:12:21.308Z,61.97
2023-05-19T22:14:48.337Z,62.46
2023-05-19T22:17:15.517Z,62.81
2023-05-19T22:19:42.532Z,63.14
2023-05-19T22:22:14.218Z,63.43
2023-05-19T22:24:41.748Z,63.62
2023-05-19T22:27:08.906Z,63.87
2023-05-19T22:29:38.772Z,64.08
2023-05-19T22:32:07.852Z,64.33
2023-05-19T22:34:34.873Z,64.52
2023-05-19T22:37:02.094Z,64.67
2023-05-19T22:39:29.070Z,65.20
2023-05-19T22:41:56.101Z,65.62
2023-05-19T22:44:23.057Z,66.30
2023-05-19T22:46:49.936Z,67.44
2023-05-19T22:49:17.139Z,68.41
2023-05-19T22:51:44.112Z,68.96
2023-05-19T22:54:11.499Z,69.36
2023-05-19T22:56:38.488Z,69.94
2023-05-19T22:59:05.482Z,70.23
2023-05-19T23:01:32.746Z,70.47
2023-05-19T23:03:59.967Z,70.69
2023-05-19T23:06:26.952Z,70.60
2023-05-19T23:09:01.443Z,70.37
2023-05-19T23:11:28.452Z,70.28
2023-05-19T23:13:55.486Z,70.35
2023-05-19T23:16:22.529Z,70.28
2023-05-19T23:18:49.674Z,70.97
2023-05-19T23:21:16.646Z,72.11
2023-05-19T23:23:43.650Z,72.55
2023-05-19T23:26:13.490Z,72.06
2023-05-19T23:28:42.204Z,71.64
2023-05-19T23:31:09.529Z,71.53
2023-05-19T23:33:36.679Z,71.45
2023-05-19T23:36:07.993Z,71.38
2023-05-19T23:38:38.014Z,71.30
2023-05-19T23:41:05.369Z,71.27
2023-05-19T23:43:32.776Z,71.29
2023-05-19T23:45:59.829Z,71.05
2023-05-19T23:48:30.630Z,70.63
2023-05-19T23:50:58.168Z,70.22
2023-05-19T23:53:25.244Z,69.93
2023-05-19T23:55:52.245Z,69.71
2023-05-19T23:58:19.261Z,69.50
